Close sub menu
S&P
S&P 500 Index 7259,220 +58,47 +0,81% (22:39)
Stijgers 1 dag
Dalers 1 dag
Indices 1 dag
Waters Corp +13,5%
Intel Corp +12,9%
SanDisk Corp. +12,0%
Akamai Technologies +11,5%
Micron Technology Inc +11,1%
QUALCOMM +10,8%
IQVIA Holdings +9,6%
Expeditors International of Washington +9,6%
Rockwell Automation +8,9%
DuPont de Nemours +8,4%
Charles River Laboratories International +7,6%
Revvity +6,7%
Huntington Ingalls Industries -10,2%
Fiserv Inc. -8,8%
Pool Corp -8,0%
Aptiv PLC -7,9%
Leidos Holdings -7,8%
PayPal Holdings -7,7%
Palantir Technologies -6,9%
Ball Corp -6,3%
Charter Communications -4,3%
Paramount Skydance Corporation -4,2%
DoorDash -3,7%
eBay -3,7%
AEX* 1.030,74+1,6%
Midkap* 1.066,47+2,0%
AMS Next 20®* 1.679,07+1,3%
FTSE100 10.446,47+2,2%
Dow Jones 49.298,25+0,7%
NASDAQ 25.326,126+1,0%
S&P500 7.259,22+0,8%
S&P Future 7.347,75+0,8%
BEL20** 5.440,14+1,6%
CAC 40** 8.062,31+1,1%
DAX 25.042,62+2,6%
* real time    ** slotkoers
AandelenKoersVorige+/-+/- %HoogLaagVolumeTijd
3M Company 142,82 141,56 +1,26 +0,9% -- -- 2.359 22:00
Abbott Laboratories 87,17 87,54 -0,37 -0,4% -- -- 3.727 22:01
ABBVIE 206,11 208,16 -2,05 -1,0% -- -- 1.736 22:02
Accenture PLC 179,01 180,12 -1,11 -0,6% -- -- 2.625 22:00
Adobe 255,62 253,96 +1,66 +0,7% -- -- 14.082 22:00
Advanced Micro Devices 355,26 341,54 +13,72 +4,0% -- -- 2.237.893 22:00
AES Corp 14,37 14,28 +0,09 +0,6% -- -- 5.610 22:00
Aflac 114,46 113,33 +1,13 +1,0% -- -- 30 22:00
Agilent Technologies 117,53 112,18 +5,35 +4,8% -- -- 33 22:00
Air Products & Chemicals 303,93 298,35 +5,58 +1,9% -- -- 1.671 22:00
Airbnb 139,68 138,86 +0,87 +0,6% -- -- 2.951 22:00
Akamai Technologies 117,94 105,78 +12,16 +11,5% -- -- 3.097 22:00
Albemarle Corp 194,82 190,69 +4,13 +2,2% -- -- 19.367 22:00
Alexandria Real Estate Equities 43,80 41,14 +2,66 +6,5% -- -- 228 22:00
Align Technology 168,82 171,88 -3,17 -1,8% -- -- 154 22:00
Allegion Public Limited 132,29 132,49 -0,20 -0,2% -- -- 1.590.759 22:00
Alliant Energy Corp 73,07 73,68 -0,61 -0,8% -- -- 5 22:00
Allstate Corp (The) 218,51 219,87 -1,36 -0,6% -- -- 1.505.994 22:00
Alphabet 384,31 379,64 +4,63 +1,2% -- -- 194.916 22:00
Alphabet 388,47 383,25 +5,18 +1,4% -- -- 322.554 22:00
Altria Group 72,79 73,41 -0,62 -0,8% -- -- 5.649 22:00
Amazon.com 273,52 272,05 +1,50 +0,6% -- -- 326.288 22:00
Amcor Plc 37,64 36,91 +0,73 +2,0% -- -- 640 22:00
Ameren Corp 111,64 112,39 -0,75 -0,7% -- -- 66 22:00
American Electric Power Company 137,04 134,66 +2,38 +1,8% -- -- 2.203 22:00
American Express Company 315,95 319,21 -3,26 -1,0% -- -- 6.955 22:00
American International Group 78,47 77,56 +0,91 +1,2% -- -- 3.737.707 22:00
American Tower Corp 178,12 180,88 -2,76 -1,5% -- -- 549 22:00
American Water Works Company 126,05 126,85 -0,80 -0,6% -- -- 1.915 22:00
Ameriprise Financial 474,65 468,59 +6,06 +1,3% 478,43 467,07 406.707 22:00
Ametek 234,68 230,43 +4,11 +1,8% -- -- 1.350.861 22:00
Amgen 329,59 323,85 +5,74 +1,8% -- -- 2.559 22:00
Amphenol Corp 136,69 141,03 -4,34 -3,1% -- -- 13.871 22:00
Analog Devices 404,84 397,02 +7,75 +2,0% -- -- 10.907 22:00
AO Smith Corp 58,88 58,86 +0,02 0,0% -- -- 4 22:00
Aon plc 314,55 314,92 -0,37 -0,1% -- -- 1.177.107 22:01
APA Corp 41,49 42,02 -0,54 -1,3% -- -- 22.826 22:00
Apollo Global Management 130,30 129,19 +1,11 +0,9% -- -- 648 22:00
Apple 284,18 276,83 +7,35 +2,7% -- -- 242.118 22:00
Applied Materials 410,95 391,38 +19,44 +5,0% -- -- 47.785 22:00
Applovin Corp 478,11 475,00 +3,11 +0,7% -- -- 15.586 22:00
Aptiv PLC 54,83 59,53 -4,70 -7,9% -- -- 812 22:00
Arch Capital Group Ltd 94,14 93,65 +0,49 +0,5% -- -- 2 22:00
Archer Daniels Midland Company 79,17 76,27 +2,92 +3,8% -- -- 7.875 22:00
Ares Management Corp 122,96 119,98 +2,98 +2,5% -- -- 166 22:00
Arista Networks Inc 170,22 172,62 -2,40 -1,4% -- -- 255.817 22:00
Arthur J Gallagher & Co 205,80 207,03 -1,23 -0,6% -- -- 2.312 22:00
Assurant 237,14 229,12 +8,02 +3,5% 238,21 228,74 710.848 22:00
AT&T 25,90 26,10 -0,20 -0,8% -- -- 29.913 22:03
Atmos Energy Corp 187,25 187,77 -0,52 -0,3% -- -- 29 22:00
Autodesk 249,42 247,54 +1,89 +0,8% -- -- 1.887 22:00
Automatic Data Processing 210,60 211,32 -0,72 -0,3% -- -- 2.603 22:00
AutoZone 3.540,92 3.482,24 +58,68 +1,7% -- -- 2 22:00
AvalonBay Communities 185,25 182,44 +2,81 +1,5% -- -- 19 22:00
Avery Dennison Corp 161,97 160,46 +1,51 +0,9% -- -- 1.579 22:00
Axon Enterprise 380,76 393,75 -13,15 -3,3% -- -- 3.046 22:00
Baker Hughes Company 67,78 69,01 -1,23 -1,8% -- -- 13.830 22:00
Ball Corp 57,11 60,93 -3,82 -6,3% -- -- 530 22:00
Bank of America Corp 53,12 52,19 +0,93 +1,8% -- -- 17.673 22:00
Bank of New York Mellon Corp 132,36 131,88 +0,48 +0,4% -- -- 127 22:00
Baxter International 16,75 16,62 +0,13 +0,8% -- -- 885 22:00
Becton Dickinson and Co 144,17 146,31 -2,14 -1,5% -- -- 1 22:00
Berkshire Hathaway 465,52 468,52 -3,00 -0,6% -- -- 25.945 22:00
Best Buy Company 57,27 57,64 -0,37 -0,6% -- -- 2.251 22:00
Biogen 189,13 187,21 +1,92 +1,0% -- -- 383 22:00
Bio-Techne Corp 56,68 54,74 +1,94 +3,5% -- -- 2 22:00
Blackrock 1.048,84 1.052,25 -3,34 -0,3% -- -- 673 22:00
Blackstone 122,72 123,09 -0,37 -0,3% -- -- 1.289 22:00
Block Inc 71,25 71,90 -0,65 -0,9% -- -- 8.322 22:03
Boeing Company 224,38 221,30 +3,08 +1,4% -- -- 45.850 22:00
Booking Holdings Inc. 167,61 165,58 +2,05 +1,2% -- -- 12.782 22:00
Boston Scientific Corp 55,98 56,85 -0,87 -1,5% -- -- 6.620 22:00
Bristol-Myers Squibb Co 56,92 57,38 -0,43 -0,7% -- -- 1.037 22:00
Broadcom Inc. 427,45 416,50 +10,86 +2,6% -- -- 137.784 22:00
Broadridge Financial Solutions 152,14 153,85 -1,71 -1,1% -- -- 166 22:00
Brown & Brown 57,51 57,64 -0,13 -0,2% -- -- 2.117 22:00
Brown-Forman Corp 26,26 24,66 +1,60 +6,5% -- -- 69 22:00
Builders FirstSource 74,56 73,75 +0,81 +1,1% -- -- 11.312 22:00
Bunge Global SA 130,38 127,62 +2,76 +2,2% -- -- 1.686 22:00
BXP Inc. 58,53 58,58 -0,05 -0,1% -- -- 81 22:00
C.H. Robinson Worldwide 167,13 161,24 +5,89 +3,7% -- -- 90 22:00
Cadence Design Systems 353,63 349,51 +4,12 +1,2% -- -- 5.875 22:00
Camden Property Trust 104,74 104,38 +0,35 +0,3% -- -- 2 22:00
Capital One Financial 189,68 189,92 -0,24 -0,1% -- -- 830 22:00
Cardinal Health 197,00 197,06 -0,06 0,0% -- -- 694 22:00
Carnival Corp 25,78 25,67 +0,10 +0,4% -- -- 315.718 22:00
Carrier Global Corp 64,18 65,89 -1,71 -2,6% -- -- 876 22:00
Carvana Co 379,09 376,55 +2,54 +0,7% -- -- 6.412 22:00
Casey's General Stores 862,35 852,63 +9,72 +1,1% -- -- 30 22:00
Caterpillar 904,59 874,78 +29,81 +3,4% -- -- 6.579 22:00
Cboe Global Markets 343,98 338,91 +5,07 +1,5% -- -- 30 22:00
Cbre Group 142,57 140,05 +2,52 +1,8% -- -- 6 22:00
CDW Corp 136,80 135,30 +1,50 +1,1% -- -- 93 22:00
Cencora 305,90 303,66 +2,24 +0,7% -- -- 8 22:00
Centene Corp 52,98 53,56 -0,58 -1,1% -- -- 1.026 22:01
CenterPoint Energy 43,53 43,32 +0,21 +0,5% -- -- 168 22:00
CF Industries Holding 128,04 125,89 +2,15 +1,7% -- -- 10.861 22:00
Charles River Laboratories International 185,39 172,32 +13,07 +7,6% -- -- 4.301 22:00
Charles Schwab Corp (The) 92,40 91,48 +0,92 +1,0% -- -- 1.307 22:00
Charter Communications 158,17 165,34 -7,11 -4,3% -- -- 2.242 22:00
vorige 1 2 3 4 5 6 volgende 
Powered by

Schakel browser notificaties in

Schakel browser notificaties in om meldingen te ontvangen op dit apparaat.

Browser notificaties inschakelen

U heeft browser notificaties voor fd.nl eerder geweigerd. Ga naar browser instellingen en sta browser notificaties toe voor fd.nl. De precieze handelingen zijn afhankelijk van uw browser.

U volgt een onderwerp

Wanneer deze zoekterm in een artikel voorkomt, zult u deze terugvinden in Mijn nieuws onder ‘Eurobonds’.

Wilt u via de FD App meldingen ontvangen voor dit onderwerp?

Wilt u via de FD App meldingen ontvangen voor dit onderwerp?

Ons privacy statement is van toepassing.

Meldingen

Wanneer deze zoekterm in een artikel voorkomt, zult u deze terugvinden in Mijn nieuws onder ‘Eurobonds’.

Wilt u via de FD App meldingen ontvangen voor dit onderwerp?

Wilt u via de FD App meldingen ontvangen voor dit onderwerp?